WUK7BU EGGW-EPPO
Flight info
| Callsign | WUK7BU |
|---|---|
| Flight time | N/A |
| Altitude | 37000 |
| Route | MATCH Q295 BRAIN M197 REDFA L620 TACHA DCT GARLU DCT VIBIS L619 PODUS DCT RADEL/N0433F310 L619 ALUKA DCT DENKO |
| Aircraft | A321/M-SDE3FGHIRWY/LB1 |
Departure
| Time | 2026-05-08 07:54 |
|---|---|
| Airport | London Luton Airport (EGGW) |
Arrival
| Time | N/A |
|---|---|
| Airport | Poznań-Ławica Airport (EPPO) |
| Time | Latitude | Longitude | Altitude | Speed | Heading |
|---|---|---|---|---|---|
| 2026-05-08 07:25 | 51.88275 | -0.37370 | 516 ft | 0 kts | 341° |
| 2026-05-08 07:45 | 51.88260 | -0.37362 | 516 ft | 4 kts | 341° |
| 2026-05-08 07:45 | 51.88240 | -0.37351 | 516 ft | 4 kts | 356° |
| 2026-05-08 07:45 | 51.88224 | -0.37361 | 516 ft | 4 kts | 66° |
| 2026-05-08 07:45 | 51.88215 | -0.37399 | 516 ft | 3 kts | 71° |
| 2026-05-08 07:46 | 51.88214 | -0.37404 | 516 ft | 2 kts | 71° |
| 2026-05-08 07:49 | 51.88220 | -0.37378 | 516 ft | 6 kts | 71° |
| 2026-05-08 07:49 | 51.88231 | -0.37276 | 517 ft | 12 kts | 110° |
| 2026-05-08 07:49 | 51.88137 | -0.37196 | 513 ft | 21 kts | 161° |
| 2026-05-08 07:50 | 51.87967 | -0.37103 | 509 ft | 29 kts | 161° |
| 2026-05-08 07:50 | 51.87807 | -0.37019 | 514 ft | 23 kts | 162° |
| 2026-05-08 07:50 | 51.87689 | -0.36956 | 523 ft | 12 kts | 162° |
| 2026-05-08 07:50 | 51.87618 | -0.37028 | 522 ft | 18 kts | 250° |
| 2026-05-08 07:51 | 51.87580 | -0.37254 | 522 ft | 24 kts | 255° |
| 2026-05-08 07:51 | 51.87568 | -0.37443 | 522 ft | 16 kts | 224° |
| 2026-05-08 07:51 | 51.87496 | -0.37583 | 523 ft | 13 kts | 253° |
| 2026-05-08 07:51 | 51.87466 | -0.37759 | 523 ft | 20 kts | 256° |
| 2026-05-08 07:52 | 51.87421 | -0.37995 | 524 ft | 19 kts | 238° |
| 2026-05-08 07:52 | 51.87337 | -0.38091 | 522 ft | 15 kts | 206° |
| 2026-05-08 07:52 | 51.87251 | -0.38106 | 524 ft | 11 kts | 149° |
| 2026-05-08 07:52 | 51.87253 | -0.38067 | 524 ft | 2 kts | 64° |
| 2026-05-08 07:53 | 51.87263 | -0.37999 | 524 ft | 10 kts | 76° |
| 2026-05-08 07:53 | 51.87268 | -0.37968 | 524 ft | 0 kts | 75° |
| 2026-05-08 07:53 | 51.87286 | -0.37862 | 524 ft | 42 kts | 74° |
| 2026-05-08 07:53 | 51.87448 | -0.36902 | 523 ft | 130 kts | 76° |
| 2026-05-08 07:54 | 51.87720 | -0.35227 | 957 ft | 164 kts | 76° |
| 2026-05-08 07:54 | 51.88060 | -0.33316 | 1745 ft | 185 kts | 77° |
| 2026-05-08 07:54 | 51.88411 | -0.31245 | 2313 ft | 201 kts | 77° |
| 2026-05-08 07:54 | 51.88805 | -0.28939 | 2459 ft | 224 kts | 77° |
| 2026-05-08 07:55 | 51.89249 | -0.26363 | 2757 ft | 249 kts | 76° |
| 2026-05-08 07:55 | 51.89530 | -0.23566 | 3420 ft | 255 kts | 98° |
| 2026-05-08 07:55 | 51.88839 | -0.20974 | 4213 ft | 255 kts | 134° |
| 2026-05-08 07:55 | 51.87368 | -0.19392 | 5066 ft | 256 kts | 154° |
| 2026-05-08 07:56 | 51.85734 | -0.18193 | 5907 ft | 260 kts | 156° |
| 2026-05-08 07:56 | 51.84061 | -0.17042 | 6725 ft | 264 kts | 157° |
| 2026-05-08 07:56 | 51.82355 | -0.15875 | 7492 ft | 269 kts | 158° |
| 2026-05-08 07:56 | 51.80621 | -0.14676 | 8232 ft | 274 kts | 158° |
| 2026-05-08 07:57 | 51.78848 | -0.13436 | 8987 ft | 280 kts | 158° |
| 2026-05-08 07:57 | 51.77073 | -0.12064 | 9737 ft | 287 kts | 148° |
| 2026-05-08 07:57 | 51.75726 | -0.09656 | 10398 ft | 297 kts | 116° |
| 2026-05-08 07:57 | 51.75314 | -0.06379 | 11059 ft | 306 kts | 89° |
| 2026-05-08 07:58 | 51.75517 | -0.02827 | 11254 ft | 330 kts | 83° |
| 2026-05-08 07:58 | 51.75830 | 0.00958 | 11565 ft | 347 kts | 82° |
| 2026-05-08 07:58 | 51.76191 | 0.04833 | 12210 ft | 352 kts | 80° |
| 2026-05-08 07:58 | 51.76710 | 0.08725 | 12921 ft | 356 kts | 77° |
| 2026-05-08 07:59 | 51.77297 | 0.12632 | 13642 ft | 360 kts | 77° |
| 2026-05-08 07:59 | 51.77918 | 0.16555 | 14306 ft | 363 kts | 76° |
| 2026-05-08 07:59 | 51.78554 | 0.20525 | 14951 ft | 366 kts | 76° |
| 2026-05-08 07:59 | 51.79189 | 0.24514 | 15592 ft | 369 kts | 77° |
| 2026-05-08 08:00 | 51.79825 | 0.28553 | 16232 ft | 372 kts | 77° |
| 2026-05-08 08:00 | 51.80459 | 0.32627 | 16867 ft | 376 kts | 77° |
| 2026-05-08 08:00 | 51.81096 | 0.36751 | 17495 ft | 380 kts | 78° |
| 2026-05-08 08:00 | 51.81726 | 0.40863 | 18107 ft | 384 kts | 78° |
| 2026-05-08 08:01 | 51.82365 | 0.45066 | 18689 ft | 388 kts | 78° |
| 2026-05-08 08:01 | 51.83011 | 0.49325 | 19239 ft | 391 kts | 78° |
| 2026-05-08 08:01 | 51.83658 | 0.53608 | 19790 ft | 394 kts | 78° |
| 2026-05-08 08:01 | 51.84308 | 0.57926 | 20354 ft | 397 kts | 78° |
| 2026-05-08 08:02 | 51.84964 | 0.62279 | 20918 ft | 400 kts | 77° |
| 2026-05-08 08:02 | 51.85627 | 0.66675 | 21482 ft | 403 kts | 77° |
| 2026-05-08 08:02 | 51.86293 | 0.71105 | 22043 ft | 407 kts | 77° |
| 2026-05-08 08:02 | 51.86962 | 0.75569 | 22608 ft | 410 kts | 77° |
| 2026-05-08 08:03 | 51.87633 | 0.80063 | 23145 ft | 413 kts | 77° |
| 2026-05-08 08:03 | 51.88311 | 0.84597 | 23663 ft | 416 kts | 77° |
| 2026-05-08 08:03 | 51.88990 | 0.89160 | 24094 ft | 419 kts | 77° |
| 2026-05-08 08:03 | 51.89672 | 0.93767 | 24510 ft | 422 kts | 77° |
| 2026-05-08 08:04 | 51.90355 | 0.98398 | 24932 ft | 425 kts | 77° |
| 2026-05-08 08:04 | 51.91040 | 1.03066 | 25358 ft | 427 kts | 77° |
| 2026-05-08 08:04 | 51.91727 | 1.07752 | 25764 ft | 430 kts | 77° |
| 2026-05-08 08:04 | 51.92419 | 1.12480 | 26182 ft | 432 kts | 77° |
| 2026-05-08 08:05 | 51.93115 | 1.17241 | 26595 ft | 435 kts | 78° |
| 2026-05-08 08:05 | 51.93812 | 1.22016 | 26996 ft | 437 kts | 78° |
| 2026-05-08 08:05 | 51.94503 | 1.26771 | 27398 ft | 440 kts | 78° |
| 2026-05-08 08:05 | 51.95204 | 1.31613 | 27790 ft | 442 kts | 78° |
| 2026-05-08 08:06 | 51.95907 | 1.36485 | 28189 ft | 445 kts | 78° |
| 2026-05-08 08:06 | 51.96610 | 1.41379 | 28576 ft | 447 kts | 78° |
| 2026-05-08 08:06 | 51.97317 | 1.46308 | 28955 ft | 450 kts | 78° |
| 2026-05-08 08:06 | 51.98026 | 1.51272 | 29314 ft | 452 kts | 78° |
| 2026-05-08 08:07 | 51.98732 | 1.56258 | 29670 ft | 455 kts | 78° |
| 2026-05-08 08:07 | 51.99440 | 1.61280 | 30024 ft | 458 kts | 78° |
| 2026-05-08 08:07 | 52.00150 | 1.66327 | 30343 ft | 460 kts | 78° |
| 2026-05-08 08:07 | 52.00864 | 1.71395 | 30646 ft | 462 kts | 78° |
| 2026-05-08 08:08 | 52.01575 | 1.76434 | 30958 ft | 465 kts | 78° |
| 2026-05-08 08:08 | 52.02294 | 1.81559 | 31263 ft | 467 kts | 78° |
| 2026-05-08 08:08 | 52.03010 | 1.86690 | 31690 ft | 466 kts | 78° |
| 2026-05-08 08:08 | 52.03725 | 1.91822 | 32121 ft | 465 kts | 78° |
| 2026-05-08 08:09 | 52.04435 | 1.96939 | 32547 ft | 464 kts | 78° |
| 2026-05-08 08:09 | 52.05141 | 2.02055 | 32962 ft | 464 kts | 78° |
| 2026-05-08 08:09 | 52.05842 | 2.07165 | 33369 ft | 463 kts | 78° |
| 2026-05-08 08:09 | 52.06542 | 2.12279 | 33773 ft | 463 kts | 78° |
| 2026-05-08 08:10 | 52.07238 | 2.17377 | 34162 ft | 462 kts | 78° |
| 2026-05-08 08:10 | 52.07934 | 2.22479 | 34482 ft | 462 kts | 78° |
| 2026-05-08 08:10 | 52.08626 | 2.27577 | 34781 ft | 462 kts | 78° |
| 2026-05-08 08:10 | 52.09083 | 2.30962 | 34960 ft | 463 kts | 78° |
| 2026-05-08 08:11 | 52.09768 | 2.36076 | 35240 ft | 463 kts | 78° |
| 2026-05-08 08:11 | 52.10451 | 2.41208 | 35514 ft | 464 kts | 78° |
| 2026-05-08 08:11 | 52.11363 | 2.48001 | 35870 ft | 465 kts | 77° |
| 2026-05-08 08:11 | 52.12275 | 2.53049 | 36141 ft | 465 kts | 73° |
| 2026-05-08 08:12 | 52.13241 | 2.58077 | 36409 ft | 466 kts | 73° |
| 2026-05-08 08:12 | 52.13880 | 2.61412 | 36575 ft | 466 kts | 73° |
| 2026-05-08 08:12 | 52.14841 | 2.66456 | 36827 ft | 467 kts | 73° |
| 2026-05-08 08:12 | 52.15798 | 2.71505 | 37049 ft | 467 kts | 73° |
| 2026-05-08 08:13 | 52.16753 | 2.76563 | 37138 ft | 466 kts | 73° |
| 2026-05-08 08:13 | 52.18647 | 2.86642 | 37134 ft | 465 kts | 73° |
| 2026-05-08 08:14 | 52.20538 | 2.96705 | 37136 ft | 464 kts | 73° |
| 2026-05-08 08:14 | 52.22414 | 3.06781 | 37136 ft | 464 kts | 73° |
| 2026-05-08 08:15 | 52.24270 | 3.16852 | 37124 ft | 464 kts | 73° |
| 2026-05-08 08:15 | 52.25924 | 3.27016 | 37120 ft | 463 kts | 81° |
| 2026-05-08 08:16 | 52.27022 | 3.37385 | 37124 ft | 464 kts | 81° |
| 2026-05-08 08:16 | 52.28119 | 3.47767 | 37127 ft | 464 kts | 81° |
| 2026-05-08 08:17 | 52.29206 | 3.58099 | 37137 ft | 464 kts | 81° |
| 2026-05-08 08:17 | 52.30293 | 3.68542 | 37107 ft | 468 kts | 81° |
| 2026-05-08 08:18 | 52.31373 | 3.79049 | 37116 ft | 470 kts | 81° |
| 2026-05-08 08:18 | 52.32446 | 3.89606 | 37129 ft | 471 kts | 81° |
| 2026-05-08 08:19 | 52.33517 | 4.00187 | 37139 ft | 472 kts | 81° |
| 2026-05-08 08:19 | 52.34581 | 4.10793 | 37144 ft | 473 kts | 81° |
| 2026-05-08 08:20 | 52.35635 | 4.21405 | 37147 ft | 473 kts | 82° |
| 2026-05-08 08:20 | 52.36667 | 4.31968 | 37154 ft | 473 kts | 82° |
| 2026-05-08 08:21 | 52.37705 | 4.42612 | 37158 ft | 474 kts | 82° |
| 2026-05-08 08:21 | 52.38729 | 4.53262 | 37158 ft | 474 kts | 82° |
| 2026-05-08 08:22 | 52.39743 | 4.63931 | 37159 ft | 474 kts | 82° |
| 2026-05-08 08:22 | 52.40743 | 4.74587 | 37159 ft | 474 kts | 82° |
| 2026-05-08 08:23 | 52.41739 | 4.85258 | 37158 ft | 474 kts | 82° |
| 2026-05-08 08:23 | 52.42736 | 4.95919 | 37158 ft | 473 kts | 82° |
| 2026-05-08 08:24 | 52.43717 | 5.06589 | 37160 ft | 473 kts | 82° |
| 2026-05-08 08:24 | 52.44678 | 5.17258 | 37173 ft | 473 kts | 82° |
| 2026-05-08 08:25 | 52.45630 | 5.27930 | 37178 ft | 473 kts | 82° |
| 2026-05-08 08:25 | 52.46574 | 5.38607 | 37179 ft | 473 kts | 82° |
| 2026-05-08 08:26 | 52.47512 | 5.49294 | 37182 ft | 473 kts | 83° |
| 2026-05-08 08:26 | 52.48444 | 5.59979 | 37178 ft | 473 kts | 83° |
| 2026-05-08 08:27 | 52.49362 | 5.70670 | 37177 ft | 473 kts | 83° |
| 2026-05-08 08:27 | 52.50274 | 5.81367 | 37172 ft | 473 kts | 83° |
| 2026-05-08 08:28 | 52.51175 | 5.91999 | 37170 ft | 473 kts | 83° |
| 2026-05-08 08:28 | 52.52069 | 6.02706 | 37166 ft | 473 kts | 83° |
| 2026-05-08 08:29 | 52.52942 | 6.13423 | 37165 ft | 474 kts | 83° |
| 2026-05-08 08:29 | 52.53806 | 6.24133 | 37171 ft | 474 kts | 83° |
| 2026-05-08 08:30 | 52.54666 | 6.34862 | 37173 ft | 474 kts | 83° |
| 2026-05-08 08:30 | 52.55945 | 6.50963 | 37173 ft | 474 kts | 83° |
| 2026-05-08 08:31 | 52.56781 | 6.61706 | 37172 ft | 474 kts | 83° |
| 2026-05-08 08:31 | 52.57606 | 6.72463 | 37176 ft | 474 kts | 83° |
| 2026-05-08 08:32 | 52.58420 | 6.83210 | 37176 ft | 474 kts | 84° |
| 2026-05-08 08:32 | 52.59227 | 6.93974 | 37179 ft | 474 kts | 84° |
| 2026-05-08 08:33 | 52.60023 | 7.04738 | 37181 ft | 474 kts | 84° |
| 2026-05-08 08:33 | 52.60811 | 7.15511 | 37185 ft | 474 kts | 84° |
| 2026-05-08 08:34 | 52.61602 | 7.26279 | 37184 ft | 474 kts | 84° |
| 2026-05-08 08:34 | 52.62376 | 7.37059 | 37185 ft | 474 kts | 84° |
| 2026-05-08 08:35 | 52.63131 | 7.47853 | 37185 ft | 474 kts | 84° |
| 2026-05-08 08:35 | 52.63876 | 7.58648 | 37188 ft | 474 kts | 84° |
| 2026-05-08 08:36 | 52.64620 | 7.69443 | 37183 ft | 475 kts | 84° |
| 2026-05-08 08:36 | 52.65352 | 7.80240 | 37191 ft | 475 kts | 84° |
| 2026-05-08 08:37 | 52.66064 | 7.90982 | 37200 ft | 475 kts | 84° |
| 2026-05-08 08:37 | 52.66770 | 8.01795 | 37204 ft | 475 kts | 84° |
| 2026-05-08 08:38 | 52.67478 | 8.12613 | 37209 ft | 475 kts | 84° |
| 2026-05-08 08:38 | 52.68176 | 8.23432 | 37210 ft | 475 kts | 85° |
| 2026-05-08 08:39 | 52.68848 | 8.34261 | 37208 ft | 475 kts | 85° |
| 2026-05-08 08:39 | 52.69518 | 8.45096 | 37212 ft | 475 kts | 85° |
| 2026-05-08 08:40 | 52.70193 | 8.55926 | 37208 ft | 475 kts | 85° |
| 2026-05-08 08:40 | 52.70852 | 8.66755 | 37213 ft | 475 kts | 85° |
| 2026-05-08 08:41 | 52.71488 | 8.77597 | 37198 ft | 475 kts | 85° |
| 2026-05-08 08:41 | 52.72120 | 8.88440 | 37198 ft | 475 kts | 85° |
| 2026-05-08 08:42 | 52.72744 | 8.99273 | 37195 ft | 474 kts | 85° |
| 2026-05-08 08:42 | 52.73357 | 9.10113 | 37198 ft | 475 kts | 85° |
| 2026-05-08 08:43 | 52.73953 | 9.20958 | 37208 ft | 475 kts | 85° |
| 2026-05-08 08:43 | 52.74537 | 9.31808 | 37209 ft | 475 kts | 85° |
| 2026-05-08 08:44 | 52.75122 | 9.42670 | 37205 ft | 475 kts | 85° |
| 2026-05-08 08:44 | 52.75705 | 9.53531 | 37202 ft | 475 kts | 85° |
| 2026-05-08 08:45 | 52.76268 | 9.64314 | 37205 ft | 475 kts | 85° |
| 2026-05-08 08:45 | 52.76817 | 9.75170 | 37214 ft | 475 kts | 86° |
| 2026-05-08 08:46 | 52.77362 | 9.86033 | 37213 ft | 475 kts | 86° |
| 2026-05-08 08:46 | 52.77897 | 9.96896 | 37214 ft | 474 kts | 86° |
| 2026-05-08 08:47 | 52.78424 | 10.07759 | 37214 ft | 474 kts | 86° |
| 2026-05-08 08:47 | 52.78935 | 10.18621 | 37215 ft | 474 kts | 86° |
| 2026-05-08 08:48 | 52.79431 | 10.29490 | 37214 ft | 474 kts | 86° |
| 2026-05-08 08:48 | 52.79920 | 10.40340 | 37217 ft | 474 kts | 86° |
| 2026-05-08 08:49 | 52.80410 | 10.51192 | 37217 ft | 473 kts | 86° |
| 2026-05-08 08:49 | 52.80886 | 10.62043 | 37216 ft | 473 kts | 86° |
| 2026-05-08 08:50 | 52.81344 | 10.72897 | 37211 ft | 473 kts | 86° |
| 2026-05-08 08:50 | 52.81800 | 10.83743 | 37216 ft | 473 kts | 86° |
| 2026-05-08 08:51 | 52.82247 | 10.94596 | 37218 ft | 473 kts | 86° |
| 2026-05-08 08:51 | 52.82673 | 11.05443 | 37216 ft | 473 kts | 86° |
| 2026-05-08 08:52 | 52.83461 | 11.16219 | 37218 ft | 473 kts | 78° |
| 2026-05-08 08:52 | 52.84791 | 11.26794 | 37208 ft | 472 kts | 78° |
| 2026-05-08 08:53 | 52.86108 | 11.37438 | 37215 ft | 472 kts | 79° |
| 2026-05-08 08:53 | 52.87410 | 11.48108 | 37222 ft | 473 kts | 79° |
| 2026-05-08 08:54 | 52.88701 | 11.58784 | 37219 ft | 473 kts | 79° |
| 2026-05-08 08:54 | 52.89989 | 11.69459 | 37213 ft | 473 kts | 79° |
| 2026-05-08 08:55 | 52.91270 | 11.80130 | 37220 ft | 473 kts | 79° |
| 2026-05-08 08:55 | 52.92535 | 11.90840 | 37219 ft | 473 kts | 79° |
| 2026-05-08 08:56 | 52.93786 | 12.01535 | 37219 ft | 473 kts | 79° |
| 2026-05-08 08:56 | 52.95036 | 12.12232 | 37218 ft | 473 kts | 79° |
| 2026-05-08 08:57 | 52.96275 | 12.22937 | 37219 ft | 473 kts | 79° |
| 2026-05-08 08:57 | 52.97365 | 12.33679 | 37202 ft | 472 kts | 87° |
| 2026-05-08 08:58 | 52.97194 | 12.44536 | 37210 ft | 471 kts | 94° |
| 2026-05-08 08:58 | 52.96853 | 12.55395 | 37211 ft | 471 kts | 94° |
| 2026-05-08 08:59 | 52.96501 | 12.66191 | 37209 ft | 472 kts | 94° |
| 2026-05-08 08:59 | 52.96129 | 12.77063 | 37216 ft | 472 kts | 94° |
| 2026-05-08 09:00 | 52.95749 | 12.87939 | 37219 ft | 472 kts | 94° |
| 2026-05-08 09:00 | 52.95370 | 12.98805 | 37226 ft | 472 kts | 94° |
| 2026-05-08 09:01 | 52.95045 | 13.07840 | 37219 ft | 472 kts | 94° |
| 2026-05-08 09:01 | 52.94646 | 13.18703 | 37222 ft | 472 kts | 94° |
| 2026-05-08 09:02 | 52.94229 | 13.29570 | 37224 ft | 472 kts | 94° |
| 2026-05-08 09:02 | 52.93807 | 13.40438 | 37223 ft | 473 kts | 94° |
| 2026-05-08 09:03 | 52.93376 | 13.51316 | 37227 ft | 473 kts | 94° |
| 2026-05-08 09:03 | 52.92933 | 13.62184 | 37219 ft | 473 kts | 95° |
| 2026-05-08 09:04 | 52.92472 | 13.73062 | 37224 ft | 473 kts | 95° |
| 2026-05-08 09:04 | 52.92005 | 13.83939 | 37233 ft | 473 kts | 95° |
| 2026-05-08 09:05 | 52.91535 | 13.94824 | 37232 ft | 473 kts | 95° |
| 2026-05-08 09:05 | 52.91058 | 14.05699 | 37223 ft | 473 kts | 95° |
| 2026-05-08 09:06 | 52.90561 | 14.16578 | 37226 ft | 473 kts | 95° |
| 2026-05-08 09:06 | 52.90051 | 14.27438 | 37227 ft | 473 kts | 95° |
| 2026-05-08 09:07 | 52.89530 | 14.38313 | 37228 ft | 473 kts | 95° |
| 2026-05-08 09:07 | 52.89003 | 14.49118 | 37227 ft | 473 kts | 95° |
| 2026-05-08 09:08 | 52.88471 | 14.59978 | 37228 ft | 473 kts | 95° |
| 2026-05-08 09:08 | 52.87926 | 14.70841 | 37228 ft | 473 kts | 95° |
| 2026-05-08 09:09 | 52.87375 | 14.81690 | 37154 ft | 469 kts | 95° |
| 2026-05-08 09:09 | 52.87099 | 14.87035 | 36856 ft | 463 kts | 95° |
| 2026-05-08 09:09 | 52.86823 | 14.92337 | 36398 ft | 461 kts | 95° |
| 2026-05-08 09:10 | 52.86544 | 14.97615 | 35880 ft | 460 kts | 95° |
| 2026-05-08 09:10 | 52.86263 | 15.02884 | 35354 ft | 459 kts | 95° |
| 2026-05-08 09:10 | 52.85980 | 15.08140 | 34816 ft | 459 kts | 95° |
| 2026-05-08 09:10 | 52.85696 | 15.13404 | 34284 ft | 459 kts | 95° |
| 2026-05-08 09:11 | 52.85410 | 15.18655 | 33638 ft | 459 kts | 95° |
| 2026-05-08 09:11 | 52.85119 | 15.23900 | 32961 ft | 459 kts | 95° |
| 2026-05-08 09:11 | 52.84824 | 15.29164 | 32230 ft | 460 kts | 95° |
| 2026-05-08 09:11 | 52.84526 | 15.34460 | 31450 ft | 463 kts | 95° |
| 2026-05-08 09:12 | 52.84229 | 15.39771 | 30695 ft | 465 kts | 95° |
| 2026-05-08 09:12 | 52.83932 | 15.45037 | 29960 ft | 466 kts | 95° |
| 2026-05-08 09:12 | 52.83629 | 15.50378 | 29035 ft | 468 kts | 95° |
| 2026-05-08 09:12 | 52.83320 | 15.55747 | 28146 ft | 469 kts | 95° |
| 2026-05-08 09:13 | 52.83007 | 15.61135 | 27283 ft | 470 kts | 95° |
| 2026-05-08 09:13 | 52.82690 | 15.66505 | 26447 ft | 470 kts | 95° |
| 2026-05-08 09:13 | 52.82370 | 15.71871 | 25628 ft | 469 kts | 95° |
| 2026-05-08 09:13 | 52.82049 | 15.77227 | 24844 ft | 467 kts | 95° |
| 2026-05-08 09:14 | 52.81730 | 15.82569 | 24081 ft | 466 kts | 95° |
| 2026-05-08 09:14 | 52.81403 | 15.87886 | 23239 ft | 465 kts | 95° |
| 2026-05-08 09:14 | 52.81052 | 15.93182 | 22363 ft | 462 kts | 96° |
| 2026-05-08 09:14 | 52.80681 | 15.98443 | 21517 ft | 460 kts | 96° |
| 2026-05-08 09:15 | 52.80300 | 16.03673 | 20690 ft | 457 kts | 96° |
| 2026-05-08 09:15 | 52.79919 | 16.08863 | 19886 ft | 453 kts | 96° |
| 2026-05-08 09:15 | 52.79543 | 16.14012 | 19109 ft | 449 kts | 96° |
| 2026-05-08 09:15 | 52.79176 | 16.19114 | 18334 ft | 445 kts | 96° |
| 2026-05-08 09:16 | 52.78815 | 16.24168 | 17459 ft | 441 kts | 96° |
| 2026-05-08 09:16 | 52.78456 | 16.29167 | 16620 ft | 437 kts | 96° |
| 2026-05-08 09:16 | 52.78100 | 16.34132 | 15798 ft | 433 kts | 96° |
| 2026-05-08 09:16 | 52.77746 | 16.39049 | 15002 ft | 430 kts | 96° |
| 2026-05-08 09:17 | 52.77399 | 16.43882 | 14230 ft | 428 kts | 97° |
| 2026-05-08 09:17 | 52.77048 | 16.48748 | 13395 ft | 426 kts | 97° |
| 2026-05-08 09:17 | 52.76697 | 16.53583 | 12559 ft | 424 kts | 97° |
| 2026-05-08 09:17 | 52.76347 | 16.58358 | 12190 ft | 411 kts | 97° |
| 2026-05-08 09:18 | 52.76008 | 16.62949 | 11928 ft | 395 kts | 97° |
| 2026-05-08 09:18 | 52.75680 | 16.67364 | 11673 ft | 380 kts | 97° |
| 2026-05-08 09:18 | 52.75361 | 16.71609 | 11421 ft | 366 kts | 97° |
| 2026-05-08 09:18 | 52.75048 | 16.75713 | 11169 ft | 354 kts | 97° |
| 2026-05-08 09:19 | 52.74745 | 16.79676 | 10918 ft | 343 kts | 97° |
| 2026-05-08 09:19 | 52.74453 | 16.83525 | 10674 ft | 333 kts | 97° |
| 2026-05-08 09:19 | 52.74050 | 16.87228 | 10446 ft | 323 kts | 109° |
| 2026-05-08 09:19 | 52.73070 | 16.90448 | 10320 ft | 308 kts | 127° |
| 2026-05-08 09:20 | 52.71626 | 16.92926 | 10177 ft | 295 kts | 144° |
| 2026-05-08 09:20 | 52.69870 | 16.94569 | 9874 ft | 288 kts | 160° |